sensor_id;sensor_type;location;lat;lon;timestamp;temperature;humidity
16076;DHT22;8142;48.242;11.644;2022-11-14T00:02:11;6.70;99.90
16076;DHT22;8142;48.242;11.644;2022-11-14T00:04:37;6.70;99.90
16076;DHT22;8142;48.242;11.644;2022-11-14T00:07:03;6.70;99.90
16076;DHT22;8142;48.242;11.644;2022-11-14T00:09:29;6.70;99.90
16076;DHT22;8142;48.242;11.644;2022-11-14T00:11:55;6.70;99.90
16076;DHT22;8142;48.242;11.644;2022-11-14T00:14:21;6.70;99.90
16076;DHT22;8142;48.242;11.644;2022-11-14T00:16:47;6.70;99.90
16076;DHT22;8142;48.242;11.644;2022-11-14T00:19:13;6.70;99.90
16076;DHT22;8142;48.242;11.644;2022-11-14T00:21:38;6.80;99.90
16076;DHT22;8142;48.242;11.644;2022-11-14T00:24:04;6.70;99.90
16076;DHT22;8142;48.242;11.644;2022-11-14T00:26:30;6.70;99.90
16076;DHT22;8142;48.242;11.644;2022-11-14T00:28:56;6.70;99.90
16076;DHT22;8142;48.242;11.644;2022-11-14T00:31:22;6.70;99.90
16076;DHT22;8142;48.242;11.644;2022-11-14T00:33:48;6.70;99.90
16076;DHT22;8142;48.242;11.644;2022-11-14T00:36:14;6.70;99.90
16076;DHT22;8142;48.242;11.644;2022-11-14T00:38:40;6.70;99.90
16076;DHT22;8142;48.242;11.644;2022-11-14T00:41:06;6.70;99.90
16076;DHT22;8142;48.242;11.644;2022-11-14T00:43:31;6.70;99.90
16076;DHT22;8142;48.242;11.644;2022-11-14T00:45:57;6.70;99.90
16076;DHT22;8142;48.242;11.644;2022-11-14T00:48:23;6.70;99.90
16076;DHT22;8142;48.242;11.644;2022-11-14T00:50:49;6.70;99.90
16076;DHT22;8142;48.242;11.644;2022-11-14T00:53:15;6.70;99.90
16076;DHT22;8142;48.242;11.644;2022-11-14T00:55:41;6.70;99.90
16076;DHT22;8142;48.242;11.644;2022-11-14T00:58:08;6.70;99.90
16076;DHT22;8142;48.242;11.644;2022-11-14T01:00:36;6.70;99.90
16076;DHT22;8142;48.242;11.644;2022-11-14T01:03:02;6.70;99.90
16076;DHT22;8142;48.242;11.644;2022-11-14T01:05:28;6.70;99.90
16076;DHT22;8142;48.242;11.644;2022-11-14T01:07:54;6.70;99.90
16076;DHT22;8142;48.242;11.644;2022-11-14T01:10:20;6.70;99.90
16076;DHT22;8142;48.242;11.644;2022-11-14T01:12:46;6.70;99.90
16076;DHT22;8142;48.242;11.644;2022-11-14T01:15:12;6.70;99.90
16076;DHT22;8142;48.242;11.644;2022-11-14T01:17:37;6.70;99.90
16076;DHT22;8142;48.242;11.644;2022-11-14T01:20:05;6.70;99.90
16076;DHT22;8142;48.242;11.644;2022-11-14T01:22:31;6.70;99.90
16076;DHT22;8142;48.242;11.644;2022-11-14T01:24:56;6.70;99.90
16076;DHT22;8142;48.242;11.644;2022-11-14T01:27:24;6.70;99.90
16076;DHT22;8142;48.242;11.644;2022-11-14T01:29:50;6.70;99.90
16076;DHT22;8142;48.242;11.644;2022-11-14T01:32:16;6.70;99.90
16076;DHT22;8142;48.242;11.644;2022-11-14T01:34:41;6.70;99.90
16076;DHT22;8142;48.242;11.644;2022-11-14T01:37:07;6.70;99.90
16076;DHT22;8142;48.242;11.644;2022-11-14T01:39:34;6.70;99.90
16076;DHT22;8142;48.242;11.644;2022-11-14T01:41:59;6.70;99.90
16076;DHT22;8142;48.242;11.644;2022-11-14T01:44:48;6.70;99.90
16076;DHT22;8142;48.242;11.644;2022-11-14T01:47:25;6.60;99.90
16076;DHT22;8142;48.242;11.644;2022-11-14T01:49:59;6.60;99.90
16076;DHT22;8142;48.242;11.644;2022-11-14T01:52:27;6.60;99.90
16076;DHT22;8142;48.242;11.644;2022-11-14T01:54:56;6.60;99.90
16076;DHT22;8142;48.242;11.644;2022-11-14T01:57:27;6.60;99.90
16076;DHT22;8142;48.242;11.644;2022-11-14T01:59:57;6.60;99.90
16076;DHT22;8142;48.242;11.644;2022-11-14T02:02:24;6.60;99.90
16076;DHT22;8142;48.242;11.644;2022-11-14T02:04:55;6.60;99.90
16076;DHT22;8142;48.242;11.644;2022-11-14T02:07:24;6.60;99.90
16076;DHT22;8142;48.242;11.644;2022-11-14T02:09:50;6.60;99.90
16076;DHT22;8142;48.242;11.644;2022-11-14T02:12:18;6.50;99.90
16076;DHT22;8142;48.242;11.644;2022-11-14T02:14:46;6.50;99.90
16076;DHT22;8142;48.242;11.644;2022-11-14T02:17:13;6.50;99.90
16076;DHT22;8142;48.242;11.644;2022-11-14T02:19:44;6.50;99.90
16076;DHT22;8142;48.242;11.644;2022-11-14T02:22:11;6.50;99.90
16076;DHT22;8142;48.242;11.644;2022-11-14T02:24:37;6.50;99.90
16076;DHT22;8142;48.242;11.644;2022-11-14T02:27:04;6.50;99.90
16076;DHT22;8142;48.242;11.644;2022-11-14T02:29:32;6.40;99.90
16076;DHT22;8142;48.242;11.644;2022-11-14T02:31:58;6.40;99.90
16076;DHT22;8142;48.242;11.644;2022-11-14T02:34:24;6.40;99.90
16076;DHT22;8142;48.242;11.644;2022-11-14T02:36:50;6.50;99.90
16076;DHT22;8142;48.242;11.644;2022-11-14T02:39:16;6.60;99.90
16076;DHT22;8142;48.242;11.644;2022-11-14T02:41:42;6.50;99.90
16076;DHT22;8142;48.242;11.644;2022-11-14T02:44:07;6.50;99.90
16076;DHT22;8142;48.242;11.644;2022-11-14T02:46:33;6.60;99.90
16076;DHT22;8142;48.242;11.644;2022-11-14T02:48:59;6.60;99.90
16076;DHT22;8142;48.242;11.644;2022-11-14T02:51:25;6.60;99.90
16076;DHT22;8142;48.242;11.644;2022-11-14T02:53:51;6.50;99.90
16076;DHT22;8142;48.242;11.644;2022-11-14T02:56:17;6.60;99.90
16076;DHT22;8142;48.242;11.644;2022-11-14T02:58:42;6.60;99.90
16076;DHT22;8142;48.242;11.644;2022-11-14T03:01:08;6.60;99.90
16076;DHT22;8142;48.242;11.644;2022-11-14T03:03:34;6.60;99.90
16076;DHT22;8142;48.242;11.644;2022-11-14T03:06:01;6.60;99.90
16076;DHT22;8142;48.242;11.644;2022-11-14T03:08:27;6.60;99.90
16076;DHT22;8142;48.242;11.644;2022-11-14T03:10:53;6.60;99.90
16076;DHT22;8142;48.242;11.644;2022-11-14T03:13:19;6.60;99.90
16076;DHT22;8142;48.242;11.644;2022-11-14T03:15:45;6.60;99.90
16076;DHT22;8142;48.242;11.644;2022-11-14T03:18:11;6.60;99.90
16076;DHT22;8142;48.242;11.644;2022-11-14T03:20:38;6.60;99.90
16076;DHT22;8142;48.242;11.644;2022-11-14T03:23:04;6.60;99.90
16076;DHT22;8142;48.242;11.644;2022-11-14T03:25:30;6.60;99.90
16076;DHT22;8142;48.242;11.644;2022-11-14T03:27:56;6.60;99.90
16076;DHT22;8142;48.242;11.644;2022-11-14T03:30:22;6.60;99.90
16076;DHT22;8142;48.242;11.644;2022-11-14T03:32:48;6.60;99.90
16076;DHT22;8142;48.242;11.644;2022-11-14T03:35:14;6.60;99.90
16076;DHT22;8142;48.242;11.644;2022-11-14T03:37:40;6.60;99.90
16076;DHT22;8142;48.242;11.644;2022-11-14T03:40:06;6.60;99.90
16076;DHT22;8142;48.242;11.644;2022-11-14T03:42:33;6.60;99.90
16076;DHT22;8142;48.242;11.644;2022-11-14T03:44:59;6.60;99.90
16076;DHT22;8142;48.242;11.644;2022-11-14T03:47:25;6.60;99.90
16076;DHT22;8142;48.242;11.644;2022-11-14T03:49:51;6.60;99.90
16076;DHT22;8142;48.242;11.644;2022-11-14T03:52:17;6.60;99.90
16076;DHT22;8142;48.242;11.644;2022-11-14T03:54:43;6.60;99.90
16076;DHT22;8142;48.242;11.644;2022-11-14T03:57:08;6.60;99.90
16076;DHT22;8142;48.242;11.644;2022-11-14T03:59:34;6.60;99.90
16076;DHT22;8142;48.242;11.644;2022-11-14T04:02:00;6.50;99.90
16076;DHT22;8142;48.242;11.644;2022-11-14T04:04:26;6.40;99.90
16076;DHT22;8142;48.242;11.644;2022-11-14T04:06:52;6.20;99.90
16076;DHT22;8142;48.242;11.644;2022-11-14T04:09:18;6.10;99.90
16076;DHT22;8142;48.242;11.644;2022-11-14T04:11:44;5.70;99.90
16076;DHT22;8142;48.242;11.644;2022-11-14T04:14:09;5.50;99.90
16076;DHT22;8142;48.242;11.644;2022-11-14T04:16:35;5.30;99.90
16076;DHT22;8142;48.242;11.644;2022-11-14T04:19:01;5.20;99.90
16076;DHT22;8142;48.242;11.644;2022-11-14T04:21:27;5.10;99.90
16076;DHT22;8142;48.242;11.644;2022-11-14T04:23:53;4.90;99.90
16076;DHT22;8142;48.242;11.644;2022-11-14T04:26:19;4.80;99.90
16076;DHT22;8142;48.242;11.644;2022-11-14T04:28:45;4.80;99.90
16076;DHT22;8142;48.242;11.644;2022-11-14T04:31:10;4.70;99.90
16076;DHT22;8142;48.242;11.644;2022-11-14T04:33:36;4.70;99.90
16076;DHT22;8142;48.242;11.644;2022-11-14T04:36:02;4.60;99.90
16076;DHT22;8142;48.242;11.644;2022-11-14T04:38:28;4.60;99.90
16076;DHT22;8142;48.242;11.644;2022-11-14T04:40:54;4.60;99.90
16076;DHT22;8142;48.242;11.644;2022-11-14T04:43:20;4.50;99.90
16076;DHT22;8142;48.242;11.644;2022-11-14T04:45:45;4.50;99.90
16076;DHT22;8142;48.242;11.644;2022-11-14T04:48:12;4.50;99.90
16076;DHT22;8142;48.242;11.644;2022-11-14T04:50:38;4.50;99.90
16076;DHT22;8142;48.242;11.644;2022-11-14T04:53:04;4.50;99.90
16076;DHT22;8142;48.242;11.644;2022-11-14T04:55:30;4.40;99.90
16076;DHT22;8142;48.242;11.644;2022-11-14T04:57:57;4.40;99.90
16076;DHT22;8142;48.242;11.644;2022-11-14T05:00:24;4.30;99.90
16076;DHT22;8142;48.242;11.644;2022-11-14T05:02:50;4.30;99.90
16076;DHT22;8142;48.242;11.644;2022-11-14T05:05:16;4.20;99.90
16076;DHT22;8142;48.242;11.644;2022-11-14T05:07:42;4.20;99.90
16076;DHT22;8142;48.242;11.644;2022-11-14T05:10:08;4.20;99.90
16076;DHT22;8142;48.242;11.644;2022-11-14T05:12:34;4.20;99.90
16076;DHT22;8142;48.242;11.644;2022-11-14T05:15:00;4.10;99.90
16076;DHT22;8142;48.242;11.644;2022-11-14T05:17:27;4.20;99.90
16076;DHT22;8142;48.242;11.644;2022-11-14T05:19:52;4.10;99.90
16076;DHT22;8142;48.242;11.644;2022-11-14T05:22:18;4.10;99.90
16076;DHT22;8142;48.242;11.644;2022-11-14T05:24:44;4.10;99.90
16076;DHT22;8142;48.242;11.644;2022-11-14T05:27:10;4.10;99.90
16076;DHT22;8142;48.242;11.644;2022-11-14T05:29:36;4.00;99.90
16076;DHT22;8142;48.242;11.644;2022-11-14T05:32:02;4.00;99.90
16076;DHT22;8142;48.242;11.644;2022-11-14T05:34:28;4.00;99.90
16076;DHT22;8142;48.242;11.644;2022-11-14T05:36:54;4.00;99.90
16076;DHT22;8142;48.242;11.644;2022-11-14T05:39:20;4.10;99.90
16076;DHT22;8142;48.242;11.644;2022-11-14T05:41:46;4.30;99.90
16076;DHT22;8142;48.242;11.644;2022-11-14T05:44:11;4.40;99.90
16076;DHT22;8142;48.242;11.644;2022-11-14T05:46:37;4.50;99.90
16076;DHT22;8142;48.242;11.644;2022-11-14T05:49:03;4.70;99.90
16076;DHT22;8142;48.242;11.644;2022-11-14T05:51:29;4.80;99.90
16076;DHT22;8142;48.242;11.644;2022-11-14T05:53:54;4.90;99.90
16076;DHT22;8142;48.242;11.644;2022-11-14T05:56:20;5.00;99.90
16076;DHT22;8142;48.242;11.644;2022-11-14T05:58:46;5.10;99.90
16076;DHT22;8142;48.242;11.644;2022-11-14T06:01:17;5.20;99.90
16076;DHT22;8142;48.242;11.644;2022-11-14T06:03:45;5.20;99.90
16076;DHT22;8142;48.242;11.644;2022-11-14T06:06:16;5.30;99.90
16076;DHT22;8142;48.242;11.644;2022-11-14T06:08:43;5.30;99.90
16076;DHT22;8142;48.242;11.644;2022-11-14T06:11:14;5.40;99.90
16076;DHT22;8142;48.242;11.644;2022-11-14T06:13:40;5.40;99.90
16076;DHT22;8142;48.242;11.644;2022-11-14T06:16:10;5.50;99.90
16076;DHT22;8142;48.242;11.644;2022-11-14T06:18:36;5.50;99.90
16076;DHT22;8142;48.242;11.644;2022-11-14T06:21:09;5.50;99.90
16076;DHT22;8142;48.242;11.644;2022-11-14T06:23:35;5.50;99.90
16076;DHT22;8142;48.242;11.644;2022-11-14T06:26:03;5.50;99.90
16076;DHT22;8142;48.242;11.644;2022-11-14T06:28:29;5.50;99.90
16076;DHT22;8142;48.242;11.644;2022-11-14T06:30:57;5.60;99.90
16076;DHT22;8142;48.242;11.644;2022-11-14T06:33:23;5.60;99.90
16076;DHT22;8142;48.242;11.644;2022-11-14T06:35:49;5.60;99.90
16076;DHT22;8142;48.242;11.644;2022-11-14T06:38:15;5.60;99.90
16076;DHT22;8142;48.242;11.644;2022-11-14T06:40:41;5.60;99.90
16076;DHT22;8142;48.242;11.644;2022-11-14T06:43:06;5.70;99.90
16076;DHT22;8142;48.242;11.644;2022-11-14T06:45:32;5.70;99.90
16076;DHT22;8142;48.242;11.644;2022-11-14T06:47:58;5.80;99.90
16076;DHT22;8142;48.242;11.644;2022-11-14T06:50:24;5.70;99.90
16076;DHT22;8142;48.242;11.644;2022-11-14T06:52:50;5.70;99.90
16076;DHT22;8142;48.242;11.644;2022-11-14T06:55:16;5.70;99.90
16076;DHT22;8142;48.242;11.644;2022-11-14T06:57:42;5.70;99.90
16076;DHT22;8142;48.242;11.644;2022-11-14T07:00:08;5.70;99.90
16076;DHT22;8142;48.242;11.644;2022-11-14T07:02:34;5.70;99.90
16076;DHT22;8142;48.242;11.644;2022-11-14T07:05:00;5.70;99.90
16076;DHT22;8142;48.242;11.644;2022-11-14T07:07:26;5.70;99.90
16076;DHT22;8142;48.242;11.644;2022-11-14T07:09:52;5.80;99.90
16076;DHT22;8142;48.242;11.644;2022-11-14T07:12:18;5.80;99.90
16076;DHT22;8142;48.242;11.644;2022-11-14T07:14:44;5.80;99.90
16076;DHT22;8142;48.242;11.644;2022-11-14T07:17:10;5.70;99.90
16076;DHT22;8142;48.242;11.644;2022-11-14T07:19:36;5.50;99.90
16076;DHT22;8142;48.242;11.644;2022-11-14T07:22:02;5.30;99.90
16076;DHT22;8142;48.242;11.644;2022-11-14T07:24:28;5.10;99.90
16076;DHT22;8142;48.242;11.644;2022-11-14T07:26:54;4.90;99.90
16076;DHT22;8142;48.242;11.644;2022-11-14T07:29:19;4.80;99.90
16076;DHT22;8142;48.242;11.644;2022-11-14T07:31:45;4.60;99.90
16076;DHT22;8142;48.242;11.644;2022-11-14T07:34:11;4.50;99.90
16076;DHT22;8142;48.242;11.644;2022-11-14T07:36:38;4.40;99.90
16076;DHT22;8142;48.242;11.644;2022-11-14T07:39:03;4.30;99.90
16076;DHT22;8142;48.242;11.644;2022-11-14T07:41:29;4.30;99.90
16076;DHT22;8142;48.242;11.644;2022-11-14T07:43:55;4.20;99.90
16076;DHT22;8142;48.242;11.644;2022-11-14T07:46:21;4.20;99.90
16076;DHT22;8142;48.242;11.644;2022-11-14T07:48:47;4.20;99.90
16076;DHT22;8142;48.242;11.644;2022-11-14T07:51:15;4.20;99.90
16076;DHT22;8142;48.242;11.644;2022-11-14T07:53:41;4.20;99.90
16076;DHT22;8142;48.242;11.644;2022-11-14T07:56:08;4.20;99.90
16076;DHT22;8142;48.242;11.644;2022-11-14T07:58:38;4.20;99.90
16076;DHT22;8142;48.242;11.644;2022-11-14T08:01:06;4.20;99.90
16076;DHT22;8142;48.242;11.644;2022-11-14T08:03:33;4.30;99.90
16076;DHT22;8142;48.242;11.644;2022-11-14T08:08:25;4.50;99.90
16076;DHT22;8142;48.242;11.644;2022-11-14T08:10:55;4.50;99.90
16076;DHT22;8142;48.242;11.644;2022-11-14T08:13:21;4.60;99.90
16076;DHT22;8142;48.242;11.644;2022-11-14T08:15:46;4.70;99.90
16076;DHT22;8142;48.242;11.644;2022-11-14T08:18:12;4.80;99.90
16076;DHT22;8142;48.242;11.644;2022-11-14T08:20:38;4.90;99.90
16076;DHT22;8142;48.242;11.644;2022-11-14T08:23:05;4.90;99.90
16076;DHT22;8142;48.242;11.644;2022-11-14T08:25:31;5.00;99.90
16076;DHT22;8142;48.242;11.644;2022-11-14T08:27:57;5.10;99.90
16076;DHT22;8142;48.242;11.644;2022-11-14T08:30:24;5.10;99.90
16076;DHT22;8142;48.242;11.644;2022-11-14T08:32:50;5.20;99.90
16076;DHT22;8142;48.242;11.644;2022-11-14T08:35:16;5.20;99.90
16076;DHT22;8142;48.242;11.644;2022-11-14T08:37:41;5.30;99.90
16076;DHT22;8142;48.242;11.644;2022-11-14T08:40:08;5.30;99.90
16076;DHT22;8142;48.242;11.644;2022-11-14T08:42:33;5.30;99.90
16076;DHT22;8142;48.242;11.644;2022-11-14T08:44:59;5.40;99.90
16076;DHT22;8142;48.242;11.644;2022-11-14T08:47:25;5.40;99.90
16076;DHT22;8142;48.242;11.644;2022-11-14T08:49:51;5.40;99.90
16076;DHT22;8142;48.242;11.644;2022-11-14T08:52:17;5.50;99.90
16076;DHT22;8142;48.242;11.644;2022-11-14T08:54:42;5.50;99.90
16076;DHT22;8142;48.242;11.644;2022-11-14T08:57:08;5.50;99.90
16076;DHT22;8142;48.242;11.644;2022-11-14T08:59:36;5.60;99.90
16076;DHT22;8142;48.242;11.644;2022-11-14T09:02:02;5.60;99.90
16076;DHT22;8142;48.242;11.644;2022-11-14T09:04:28;5.70;99.90
16076;DHT22;8142;48.242;11.644;2022-11-14T09:06:53;5.70;99.90
16076;DHT22;8142;48.242;11.644;2022-11-14T09:09:19;5.70;99.90
16076;DHT22;8142;48.242;11.644;2022-11-14T09:11:45;5.70;99.90
16076;DHT22;8142;48.242;11.644;2022-11-14T09:14:11;5.60;99.90
16076;DHT22;8142;48.242;11.644;2022-11-14T09:16:37;5.70;99.90
16076;DHT22;8142;48.242;11.644;2022-11-14T09:19:03;5.70;99.90
16076;DHT22;8142;48.242;11.644;2022-11-14T09:21:29;5.70;99.90
16076;DHT22;8142;48.242;11.644;2022-11-14T09:23:54;5.70;99.90
16076;DHT22;8142;48.242;11.644;2022-11-14T09:26:20;5.80;99.90
16076;DHT22;8142;48.242;11.644;2022-11-14T09:28:46;5.90;99.90
16076;DHT22;8142;48.242;11.644;2022-11-14T09:31:12;6.10;99.90
16076;DHT22;8142;48.242;11.644;2022-11-14T09:33:38;6.00;99.90
16076;DHT22;8142;48.242;11.644;2022-11-14T09:36:06;6.10;99.90
16076;DHT22;8142;48.242;11.644;2022-11-14T09:38:33;6.10;99.90
16076;DHT22;8142;48.242;11.644;2022-11-14T09:46:00;6.30;99.90
16076;DHT22;8142;48.242;11.644;2022-11-14T09:48:28;6.30;99.90
16076;DHT22;8142;48.242;11.644;2022-11-14T09:51:14;6.30;99.90
16076;DHT22;8142;48.242;11.644;2022-11-14T09:54:01;6.40;99.90
16076;DHT22;8142;48.242;11.644;2022-11-14T09:56:30;6.40;99.90
16076;DHT22;8142;48.242;11.644;2022-11-14T09:58:56;6.50;99.90
16076;DHT22;8142;48.242;11.644;2022-11-14T10:12:22;6.60;99.90
16076;DHT22;8142;48.242;11.644;2022-11-14T10:15:21;6.70;99.90
16076;DHT22;8142;48.242;11.644;2022-11-14T10:18:14;6.70;99.90
16076;DHT22;8142;48.242;11.644;2022-11-14T10:26:24;6.80;99.90
16076;DHT22;8142;48.242;11.644;2022-11-14T10:29:28;6.80;99.90
16076;DHT22;8142;48.242;11.644;2022-11-14T10:34:48;6.90;99.90
16076;DHT22;8142;48.242;11.644;2022-11-14T10:37:28;6.90;99.90
16076;DHT22;8142;48.242;11.644;2022-11-14T10:40:12;6.90;99.90
16076;DHT22;8142;48.242;11.644;2022-11-14T10:42:43;6.90;99.90
16076;DHT22;8142;48.242;11.644;2022-11-14T10:45:27;7.00;99.90
16076;DHT22;8142;48.242;11.644;2022-11-14T10:48:00;6.90;99.90
16076;DHT22;8142;48.242;11.644;2022-11-14T10:53:20;7.00;99.90
16076;DHT22;8142;48.242;11.644;2022-11-14T10:55:53;6.90;99.90
16076;DHT22;8142;48.242;11.644;2022-11-14T10:58:20;7.10;99.90
16076;DHT22;8142;48.242;11.644;2022-11-14T11:00:46;7.00;99.90
16076;DHT22;8142;48.242;11.644;2022-11-14T11:03:12;7.10;99.90
16076;DHT22;8142;48.242;11.644;2022-11-14T11:05:50;7.10;99.90
16076;DHT22;8142;48.242;11.644;2022-11-14T11:08:21;7.10;99.90
16076;DHT22;8142;48.242;11.644;2022-11-14T11:11:11;7.10;99.90
16076;DHT22;8142;48.242;11.644;2022-11-14T11:13:58;7.10;99.90
16076;DHT22;8142;48.242;11.644;2022-11-14T11:16:27;7.10;99.90
16076;DHT22;8142;48.242;11.644;2022-11-14T11:18:53;7.10;99.90
16076;DHT22;8142;48.242;11.644;2022-11-14T11:21:21;7.10;99.90
16076;DHT22;8142;48.242;11.644;2022-11-14T11:23:49;7.10;99.90
16076;DHT22;8142;48.242;11.644;2022-11-14T11:26:19;7.20;99.90
16076;DHT22;8142;48.242;11.644;2022-11-14T11:29:05;7.20;99.90
16076;DHT22;8142;48.242;11.644;2022-11-14T11:31:50;7.20;99.90
16076;DHT22;8142;48.242;11.644;2022-11-14T11:34:29;7.20;99.90
16076;DHT22;8142;48.242;11.644;2022-11-14T11:39:30;7.30;99.90
16076;DHT22;8142;48.242;11.644;2022-11-14T11:42:00;7.30;99.90
16076;DHT22;8142;48.242;11.644;2022-11-14T11:44:42;7.30;99.90
16076;DHT22;8142;48.242;11.644;2022-11-14T11:47:13;7.30;99.90
16076;DHT22;8142;48.242;11.644;2022-11-14T11:49:46;7.30;99.90
16076;DHT22;8142;48.242;11.644;2022-11-14T11:52:33;7.30;99.90
16076;DHT22;8142;48.242;11.644;2022-11-14T11:58:05;7.40;99.90
16076;DHT22;8142;48.242;11.644;2022-11-14T12:00:34;7.40;99.90
16076;DHT22;8142;48.242;11.644;2022-11-14T12:03:00;7.40;99.90
16076;DHT22;8142;48.242;11.644;2022-11-14T12:08:28;7.40;99.90
16076;DHT22;8142;48.242;11.644;2022-11-14T12:10:57;7.50;99.90
16076;DHT22;8142;48.242;11.644;2022-11-14T12:25:22;7.70;99.90
16076;DHT22;8142;48.242;11.644;2022-11-14T12:30:26;7.80;99.90
16076;DHT22;8142;48.242;11.644;2022-11-14T12:32:56;7.80;99.90
16076;DHT22;8142;48.242;11.644;2022-11-14T12:35:32;7.90;99.90
16076;DHT22;8142;48.242;11.644;2022-11-14T12:38:00;7.90;99.90
16076;DHT22;8142;48.242;11.644;2022-11-14T12:40:36;8.00;99.90
16076;DHT22;8142;48.242;11.644;2022-11-14T12:43:23;8.00;99.90
16076;DHT22;8142;48.242;11.644;2022-11-14T12:50:54;8.10;99.90
16076;DHT22;8142;48.242;11.644;2022-11-14T13:06:40;8.40;99.90
16076;DHT22;8142;48.242;11.644;2022-11-14T13:09:32;8.40;99.90
16076;DHT22;8142;48.242;11.644;2022-11-14T13:12:17;8.50;99.90
16076;DHT22;8142;48.242;11.644;2022-11-14T13:15:30;8.50;99.90
16076;DHT22;8142;48.242;11.644;2022-11-14T13:21:16;8.50;99.90
16076;DHT22;8142;48.242;11.644;2022-11-14T13:24:01;8.60;99.90
16076;DHT22;8142;48.242;11.644;2022-11-14T13:28:56;8.60;99.90
16076;DHT22;8142;48.242;11.644;2022-11-14T13:33:55;8.70;99.90
16076;DHT22;8142;48.242;11.644;2022-11-14T13:36:36;8.70;99.90
16076;DHT22;8142;48.242;11.644;2022-11-14T13:48:04;8.80;99.90
16076;DHT22;8142;48.242;11.644;2022-11-14T13:50:35;8.80;99.90
16076;DHT22;8142;48.242;11.644;2022-11-14T13:53:11;8.90;99.90
16076;DHT22;8142;48.242;11.644;2022-11-14T14:18:00;9.00;99.90
16076;DHT22;8142;48.242;11.644;2022-11-14T14:20:35;9.00;99.90
16076;DHT22;8142;48.242;11.644;2022-11-14T14:26:03;9.00;99.90
16076;DHT22;8142;48.242;11.644;2022-11-14T14:28:36;9.00;99.90
16076;DHT22;8142;48.242;11.644;2022-11-14T14:33:46;9.00;99.90
16076;DHT22;8142;48.242;11.644;2022-11-14T14:36:24;9.00;99.90
16076;DHT22;8142;48.242;11.644;2022-11-14T14:39:38;8.90;99.90
16076;DHT22;8142;48.242;11.644;2022-11-14T14:41:57;9.00;99.90
16076;DHT22;8142;48.242;11.644;2022-11-14T14:44:29;9.00;99.90
16076;DHT22;8142;48.242;11.644;2022-11-14T14:50:15;9.00;99.90
16076;DHT22;8142;48.242;11.644;2022-11-14T14:52:42;9.00;99.90
16076;DHT22;8142;48.242;11.644;2022-11-14T14:55:19;9.00;99.90
16076;DHT22;8142;48.242;11.644;2022-11-14T14:57:45;9.00;99.90
16076;DHT22;8142;48.242;11.644;2022-11-14T15:00:23;9.00;99.90
16076;DHT22;8142;48.242;11.644;2022-11-14T15:02:57;9.00;99.90
16076;DHT22;8142;48.242;11.644;2022-11-14T15:05:28;8.90;99.90
16076;DHT22;8142;48.242;11.644;2022-11-14T15:07:56;8.90;99.90
16076;DHT22;8142;48.242;11.644;2022-11-14T15:10:25;9.00;99.90
16076;DHT22;8142;48.242;11.644;2022-11-14T15:12:55;8.90;99.90
16076;DHT22;8142;48.242;11.644;2022-11-14T15:15:21;8.80;99.90
16076;DHT22;8142;48.242;11.644;2022-11-14T15:17:52;8.90;99.90
16076;DHT22;8142;48.242;11.644;2022-11-14T15:20:27;8.80;99.90
16076;DHT22;8142;48.242;11.644;2022-11-14T15:25:31;8.70;99.90
16076;DHT22;8142;48.242;11.644;2022-11-14T15:27:57;8.70;99.90
16076;DHT22;8142;48.242;11.644;2022-11-14T15:30:32;8.70;99.90
16076;DHT22;8142;48.242;11.644;2022-11-14T15:33:04;8.60;99.90
16076;DHT22;8142;48.242;11.644;2022-11-14T15:35:38;8.60;99.90
16076;DHT22;8142;48.242;11.644;2022-11-14T15:38:25;8.60;99.90
16076;DHT22;8142;48.242;11.644;2022-11-14T15:41:17;8.60;99.90
16076;DHT22;8142;48.242;11.644;2022-11-14T15:46:32;8.50;99.90
16076;DHT22;8142;48.242;11.644;2022-11-14T15:49:00;8.50;99.90
16076;DHT22;8142;48.242;11.644;2022-11-14T15:51:53;8.40;99.90
16076;DHT22;8142;48.242;11.644;2022-11-14T15:54:20;8.40;99.90
16076;DHT22;8142;48.242;11.644;2022-11-14T15:56:47;8.40;99.90
16076;DHT22;8142;48.242;11.644;2022-11-14T15:59:13;8.40;99.90
16076;DHT22;8142;48.242;11.644;2022-11-14T16:01:39;8.30;99.90
16076;DHT22;8142;48.242;11.644;2022-11-14T16:04:14;8.20;99.90
16076;DHT22;8142;48.242;11.644;2022-11-14T16:06:40;8.10;99.90
16076;DHT22;8142;48.242;11.644;2022-11-14T16:09:17;7.90;99.90
16076;DHT22;8142;48.242;11.644;2022-11-14T16:11:43;7.70;99.90
16076;DHT22;8142;48.242;11.644;2022-11-14T16:14:10;7.50;99.90
16076;DHT22;8142;48.242;11.644;2022-11-14T16:16:36;7.40;99.90
16076;DHT22;8142;48.242;11.644;2022-11-14T16:19:02;7.20;99.90
16076;DHT22;8142;48.242;11.644;2022-11-14T16:21:28;7.10;99.90
16076;DHT22;8142;48.242;11.644;2022-11-14T16:23:54;7.00;99.90
16076;DHT22;8142;48.242;11.644;2022-11-14T16:26:20;6.90;99.90
16076;DHT22;8142;48.242;11.644;2022-11-14T16:28:46;6.90;99.90
16076;DHT22;8142;48.242;11.644;2022-11-14T16:31:13;6.70;99.90
16076;DHT22;8142;48.242;11.644;2022-11-14T16:33:39;6.70;99.90
16076;DHT22;8142;48.242;11.644;2022-11-14T16:36:05;6.60;99.90
16076;DHT22;8142;48.242;11.644;2022-11-14T16:38:31;6.50;99.90
16076;DHT22;8142;48.242;11.644;2022-11-14T16:40:57;6.50;99.90
16076;DHT22;8142;48.242;11.644;2022-11-14T16:43:25;6.50;99.90
16076;DHT22;8142;48.242;11.644;2022-11-14T16:45:50;6.50;99.90
16076;DHT22;8142;48.242;11.644;2022-11-14T16:48:16;6.50;99.90
16076;DHT22;8142;48.242;11.644;2022-11-14T16:50:42;6.50;99.90
16076;DHT22;8142;48.242;11.644;2022-11-14T16:53:08;6.50;99.90
16076;DHT22;8142;48.242;11.644;2022-11-14T16:55:34;6.40;99.90
16076;DHT22;8142;48.242;11.644;2022-11-14T16:57:59;6.50;99.90
16076;DHT22;8142;48.242;11.644;2022-11-14T17:00:25;6.50;99.90
16076;DHT22;8142;48.242;11.644;2022-11-14T17:02:52;6.50;99.90
16076;DHT22;8142;48.242;11.644;2022-11-14T17:05:18;6.60;99.90
16076;DHT22;8142;48.242;11.644;2022-11-14T17:07:43;6.60;99.90
16076;DHT22;8142;48.242;11.644;2022-11-14T17:10:09;6.70;99.90
16076;DHT22;8142;48.242;11.644;2022-11-14T17:12:35;6.70;99.90
16076;DHT22;8142;48.242;11.644;2022-11-14T17:15:01;6.80;99.90
16076;DHT22;8142;48.242;11.644;2022-11-14T17:17:27;6.90;99.90
16076;DHT22;8142;48.242;11.644;2022-11-14T17:19:53;6.90;99.90
16076;DHT22;8142;48.242;11.644;2022-11-14T17:22:19;7.00;99.90
16076;DHT22;8142;48.242;11.644;2022-11-14T17:24:45;7.10;99.90
16076;DHT22;8142;48.242;11.644;2022-11-14T17:27:10;7.10;99.90
16076;DHT22;8142;48.242;11.644;2022-11-14T17:29:37;7.20;99.90
16076;DHT22;8142;48.242;11.644;2022-11-14T17:32:03;7.30;99.90
16076;DHT22;8142;48.242;11.644;2022-11-14T17:34:30;7.30;99.90
16076;DHT22;8142;48.242;11.644;2022-11-14T17:36:56;7.40;99.90
16076;DHT22;8142;48.242;11.644;2022-11-14T17:39:22;7.40;99.90
16076;DHT22;8142;48.242;11.644;2022-11-14T17:41:48;7.40;99.90
16076;DHT22;8142;48.242;11.644;2022-11-14T17:44:14;7.50;99.90
16076;DHT22;8142;48.242;11.644;2022-11-14T17:46:40;7.50;99.90
16076;DHT22;8142;48.242;11.644;2022-11-14T17:49:06;7.50;99.90
16076;DHT22;8142;48.242;11.644;2022-11-14T17:51:32;7.50;99.90
16076;DHT22;8142;48.242;11.644;2022-11-14T17:53:57;7.50;99.90
16076;DHT22;8142;48.242;11.644;2022-11-14T17:56:24;7.50;99.90
16076;DHT22;8142;48.242;11.644;2022-11-14T17:58:52;7.50;99.90